Ackley, Iowa
Current Conditions -  °F | °C
As of 12:40 PM on Monday 26 Jan 2015 (Local Time) from KIFA Reporting Station
Clear Clear  
Wind Chill: 34°   Ceiling: Unl
Heat Index: 42°   Visibility: 10mi
Dew Point: 36°   Wind: 16mph
Humidity: 79%   Direction: 310°NW
Pressure: 29.78"   Gusts: 22mph
Location:  42.55°N, 93.05°W
Report Text: KIFA 261840Z AUTO 31014G19KT 10SM CLR 06/02 A2978 RMK AO2 T00560023
Loading
Personal Weather Stations






























Interactive Weather Map New forecast layout! Learn more

10-Day Weather Forecast

Advertisements
Track Severe Weather on mobile